sensor_id;sensor_type;location;lat;lon;timestamp;temperature;humidity
26803;DHT22;14378;51.796;5.808;2023-12-07T00:00:51;1.50;99.90
26803;DHT22;14378;51.796;5.808;2023-12-07T00:02:51;1.50;99.90
26803;DHT22;14378;51.796;5.808;2023-12-07T00:04:52;1.50;99.90
26803;DHT22;14378;51.796;5.808;2023-12-07T00:06:53;1.40;99.90
26803;DHT22;14378;51.796;5.808;2023-12-07T00:08:55;1.40;99.90
26803;DHT22;14378;51.796;5.808;2023-12-07T00:10:56;1.40;99.90
26803;DHT22;14378;51.796;5.808;2023-12-07T00:12:56;1.40;99.90
26803;DHT22;14378;51.796;5.808;2023-12-07T00:14:57;1.40;99.90
26803;DHT22;14378;51.796;5.808;2023-12-07T00:16:58;1.40;99.90
26803;DHT22;14378;51.796;5.808;2023-12-07T00:18:59;1.40;99.90
26803;DHT22;14378;51.796;5.808;2023-12-07T00:21:01;1.40;99.90
26803;DHT22;14378;51.796;5.808;2023-12-07T00:23:02;1.30;99.90
26803;DHT22;14378;51.796;5.808;2023-12-07T00:25:03;1.30;99.90
26803;DHT22;14378;51.796;5.808;2023-12-07T00:27:04;1.30;99.90
26803;DHT22;14378;51.796;5.808;2023-12-07T00:29:07;1.30;99.90
26803;DHT22;14378;51.796;5.808;2023-12-07T00:31:08;1.20;99.90
26803;DHT22;14378;51.796;5.808;2023-12-07T00:33:10;1.20;99.90
26803;DHT22;14378;51.796;5.808;2023-12-07T00:35:11;1.20;99.90
26803;DHT22;14378;51.796;5.808;2023-12-07T00:37:11;1.20;99.90
26803;DHT22;14378;51.796;5.808;2023-12-07T00:39:12;1.20;99.90
26803;DHT22;14378;51.796;5.808;2023-12-07T00:41:13;1.20;99.90
26803;DHT22;14378;51.796;5.808;2023-12-07T00:43:15;1.20;99.90
26803;DHT22;14378;51.796;5.808;2023-12-07T00:45:15;1.20;99.90
26803;DHT22;14378;51.796;5.808;2023-12-07T00:47:16;1.20;99.90
26803;DHT22;14378;51.796;5.808;2023-12-07T00:49:17;1.10;99.90
26803;DHT22;14378;51.796;5.808;2023-12-07T00:51:18;1.10;99.90
26803;DHT22;14378;51.796;5.808;2023-12-07T00:53:19;1.20;99.90
26803;DHT22;14378;51.796;5.808;2023-12-07T00:55:20;1.20;99.90
26803;DHT22;14378;51.796;5.808;2023-12-07T00:57:21;1.10;99.90
26803;DHT22;14378;51.796;5.808;2023-12-07T00:59:25;1.10;99.90
26803;DHT22;14378;51.796;5.808;2023-12-07T01:01:28;1.10;99.90
26803;DHT22;14378;51.796;5.808;2023-12-07T01:03:29;1.10;99.90
26803;DHT22;14378;51.796;5.808;2023-12-07T01:05:30;1.10;99.90
26803;DHT22;14378;51.796;5.808;2023-12-07T01:07:31;1.10;99.90
26803;DHT22;14378;51.796;5.808;2023-12-07T01:09:33;1.10;99.90
26803;DHT22;14378;51.796;5.808;2023-12-07T01:11:36;1.10;99.90
26803;DHT22;14378;51.796;5.808;2023-12-07T01:13:37;1.10;99.90
26803;DHT22;14378;51.796;5.808;2023-12-07T01:15:38;1.10;99.90
26803;DHT22;14378;51.796;5.808;2023-12-07T01:17:39;1.00;99.90
26803;DHT22;14378;51.796;5.808;2023-12-07T01:19:40;1.00;99.90
26803;DHT22;14378;51.796;5.808;2023-12-07T01:21:41;1.00;99.90
26803;DHT22;14378;51.796;5.808;2023-12-07T01:23:42;1.00;99.90
26803;DHT22;14378;51.796;5.808;2023-12-07T01:25:49;1.00;99.90
26803;DHT22;14378;51.796;5.808;2023-12-07T01:27:56;1.00;99.90
26803;DHT22;14378;51.796;5.808;2023-12-07T01:29:56;1.00;99.90
26803;DHT22;14378;51.796;5.808;2023-12-07T01:31:57;0.90;99.90
26803;DHT22;14378;51.796;5.808;2023-12-07T01:33:58;1.00;99.90
26803;DHT22;14378;51.796;5.808;2023-12-07T01:35:59;1.00;99.90
26803;DHT22;14378;51.796;5.808;2023-12-07T01:38:00;1.00;99.90
26803;DHT22;14378;51.796;5.808;2023-12-07T01:40:01;1.00;99.90
26803;DHT22;14378;51.796;5.808;2023-12-07T01:42:11;1.00;99.90
26803;DHT22;14378;51.796;5.808;2023-12-07T01:44:13;1.00;99.90
26803;DHT22;14378;51.796;5.808;2023-12-07T01:46:14;1.00;99.90
26803;DHT22;14378;51.796;5.808;2023-12-07T01:48:16;1.00;99.90
26803;DHT22;14378;51.796;5.808;2023-12-07T01:50:17;1.00;99.90
26803;DHT22;14378;51.796;5.808;2023-12-07T01:52:26;1.00;99.90
26803;DHT22;14378;51.796;5.808;2023-12-07T01:54:27;1.10;99.90
26803;DHT22;14378;51.796;5.808;2023-12-07T01:56:28;1.10;99.90
26803;DHT22;14378;51.796;5.808;2023-12-07T01:58:30;1.10;99.90
26803;DHT22;14378;51.796;5.808;2023-12-07T02:00:32;1.10;99.90
26803;DHT22;14378;51.796;5.808;2023-12-07T02:02:33;1.10;99.90
26803;DHT22;14378;51.796;5.808;2023-12-07T02:04:35;1.10;99.90
26803;DHT22;14378;51.796;5.808;2023-12-07T02:06:36;1.20;99.90
26803;DHT22;14378;51.796;5.808;2023-12-07T02:08:37;1.20;99.90
26803;DHT22;14378;51.796;5.808;2023-12-07T02:10:42;1.20;99.90
26803;DHT22;14378;51.796;5.808;2023-12-07T02:12:43;1.20;99.90
26803;DHT22;14378;51.796;5.808;2023-12-07T02:14:44;1.20;99.90
26803;DHT22;14378;51.796;5.808;2023-12-07T02:17:17;1.30;99.90
26803;DHT22;14378;51.796;5.808;2023-12-07T02:21:52;1.30;99.90
26803;DHT22;14378;51.796;5.808;2023-12-07T02:23:54;1.30;99.90
26803;DHT22;14378;51.796;5.808;2023-12-07T02:26:02;1.40;99.90
26803;DHT22;14378;51.796;5.808;2023-12-07T02:28:03;1.30;99.90
26803;DHT22;14378;51.796;5.808;2023-12-07T02:30:05;1.30;99.90
26803;DHT22;14378;51.796;5.808;2023-12-07T02:32:07;1.30;99.90
26803;DHT22;14378;51.796;5.808;2023-12-07T02:34:08;1.30;99.90
26803;DHT22;14378;51.796;5.808;2023-12-07T02:36:14;1.30;99.90
26803;DHT22;14378;51.796;5.808;2023-12-07T02:38:18;1.30;99.90
26803;DHT22;14378;51.796;5.808;2023-12-07T02:40:24;1.30;99.90
26803;DHT22;14378;51.796;5.808;2023-12-07T02:42:26;1.30;99.90
26803;DHT22;14378;51.796;5.808;2023-12-07T02:44:27;1.30;99.90
26803;DHT22;14378;51.796;5.808;2023-12-07T02:46:28;1.30;99.90
26803;DHT22;14378;51.796;5.808;2023-12-07T02:48:29;1.30;99.90
26803;DHT22;14378;51.796;5.808;2023-12-07T02:50:31;1.30;99.90
26803;DHT22;14378;51.796;5.808;2023-12-07T02:52:32;1.30;99.90
26803;DHT22;14378;51.796;5.808;2023-12-07T02:54:33;1.30;99.90
26803;DHT22;14378;51.796;5.808;2023-12-07T02:56:34;1.30;99.90
26803;DHT22;14378;51.796;5.808;2023-12-07T02:58:34;1.30;99.90
26803;DHT22;14378;51.796;5.808;2023-12-07T03:00:35;1.30;99.90
26803;DHT22;14378;51.796;5.808;2023-12-07T03:02:40;1.30;99.90
26803;DHT22;14378;51.796;5.808;2023-12-07T03:04:41;1.30;99.90
26803;DHT22;14378;51.796;5.808;2023-12-07T03:06:42;1.30;99.90
26803;DHT22;14378;51.796;5.808;2023-12-07T03:08:43;1.30;99.90
26803;DHT22;14378;51.796;5.808;2023-12-07T03:10:44;1.30;99.90
26803;DHT22;14378;51.796;5.808;2023-12-07T03:12:45;1.30;99.90
26803;DHT22;14378;51.796;5.808;2023-12-07T03:14:45;1.30;99.90
26803;DHT22;14378;51.796;5.808;2023-12-07T03:16:46;1.30;99.90
26803;DHT22;14378;51.796;5.808;2023-12-07T03:18:47;1.30;99.90
26803;DHT22;14378;51.796;5.808;2023-12-07T03:20:48;1.30;99.90
26803;DHT22;14378;51.796;5.808;2023-12-07T03:22:50;1.40;99.90
26803;DHT22;14378;51.796;5.808;2023-12-07T03:24:52;1.40;99.90
26803;DHT22;14378;51.796;5.808;2023-12-07T03:26:53;1.40;99.90
26803;DHT22;14378;51.796;5.808;2023-12-07T03:28:54;1.40;99.90
26803;DHT22;14378;51.796;5.808;2023-12-07T03:30:55;1.40;99.90
26803;DHT22;14378;51.796;5.808;2023-12-07T03:32:57;1.40;99.90
26803;DHT22;14378;51.796;5.808;2023-12-07T03:34:58;1.50;99.90
26803;DHT22;14378;51.796;5.808;2023-12-07T03:36:59;1.50;99.90
26803;DHT22;14378;51.796;5.808;2023-12-07T03:39:00;1.50;99.90
26803;DHT22;14378;51.796;5.808;2023-12-07T03:41:01;1.50;99.90
26803;DHT22;14378;51.796;5.808;2023-12-07T03:43:02;1.60;99.90
26803;DHT22;14378;51.796;5.808;2023-12-07T03:45:05;1.60;99.90
26803;DHT22;14378;51.796;5.808;2023-12-07T03:47:07;1.60;99.90
26803;DHT22;14378;51.796;5.808;2023-12-07T03:49:08;1.60;99.90
26803;DHT22;14378;51.796;5.808;2023-12-07T03:51:12;1.70;99.90
26803;DHT22;14378;51.796;5.808;2023-12-07T03:53:13;1.70;99.90
26803;DHT22;14378;51.796;5.808;2023-12-07T03:55:14;1.70;99.90
26803;DHT22;14378;51.796;5.808;2023-12-07T03:57:15;1.80;99.90
26803;DHT22;14378;51.796;5.808;2023-12-07T03:59:19;1.80;99.90
26803;DHT22;14378;51.796;5.808;2023-12-07T04:01:30;1.80;99.90
26803;DHT22;14378;51.796;5.808;2023-12-07T04:03:31;1.90;99.90
26803;DHT22;14378;51.796;5.808;2023-12-07T04:05:32;1.90;99.90
26803;DHT22;14378;51.796;5.808;2023-12-07T04:07:33;1.90;99.90
26803;DHT22;14378;51.796;5.808;2023-12-07T04:09:35;1.90;99.90
26803;DHT22;14378;51.796;5.808;2023-12-07T04:11:36;2.00;99.90
26803;DHT22;14378;51.796;5.808;2023-12-07T04:13:37;2.00;99.90
26803;DHT22;14378;51.796;5.808;2023-12-07T04:15:38;2.00;99.90
26803;DHT22;14378;51.796;5.808;2023-12-07T04:17:39;2.00;99.90
26803;DHT22;14378;51.796;5.808;2023-12-07T04:19:40;2.00;99.90
26803;DHT22;14378;51.796;5.808;2023-12-07T04:21:41;2.00;99.90
26803;DHT22;14378;51.796;5.808;2023-12-07T04:23:42;2.10;99.90
26803;DHT22;14378;51.796;5.808;2023-12-07T04:25:43;2.10;99.90
26803;DHT22;14378;51.796;5.808;2023-12-07T04:27:43;2.10;99.90
26803;DHT22;14378;51.796;5.808;2023-12-07T04:29:44;2.10;99.90
26803;DHT22;14378;51.796;5.808;2023-12-07T04:31:45;2.10;99.90
26803;DHT22;14378;51.796;5.808;2023-12-07T04:33:46;2.10;99.90
26803;DHT22;14378;51.796;5.808;2023-12-07T04:35:47;2.10;99.90
26803;DHT22;14378;51.796;5.808;2023-12-07T04:37:48;2.10;99.90
26803;DHT22;14378;51.796;5.808;2023-12-07T04:39:49;2.10;99.90
26803;DHT22;14378;51.796;5.808;2023-12-07T04:41:49;2.10;99.90
26803;DHT22;14378;51.796;5.808;2023-12-07T04:43:51;2.10;99.90
26803;DHT22;14378;51.796;5.808;2023-12-07T04:45:52;2.10;99.90
26803;DHT22;14378;51.796;5.808;2023-12-07T04:47:56;2.10;99.90
26803;DHT22;14378;51.796;5.808;2023-12-07T04:49:58;2.10;99.90
26803;DHT22;14378;51.796;5.808;2023-12-07T04:51:59;2.10;99.90
26803;DHT22;14378;51.796;5.808;2023-12-07T04:54:00;2.10;99.90
26803;DHT22;14378;51.796;5.808;2023-12-07T04:56:01;2.10;99.90
26803;DHT22;14378;51.796;5.808;2023-12-07T04:58:01;2.10;99.90
26803;DHT22;14378;51.796;5.808;2023-12-07T05:00:03;2.10;99.90
26803;DHT22;14378;51.796;5.808;2023-12-07T05:02:07;2.00;99.90
26803;DHT22;14378;51.796;5.808;2023-12-07T05:04:08;2.00;99.90
26803;DHT22;14378;51.796;5.808;2023-12-07T05:06:09;2.00;99.90
26803;DHT22;14378;51.796;5.808;2023-12-07T05:08:11;2.00;99.90
26803;DHT22;14378;51.796;5.808;2023-12-07T05:10:12;2.00;99.90
26803;DHT22;14378;51.796;5.808;2023-12-07T05:12:13;2.00;99.90
26803;DHT22;14378;51.796;5.808;2023-12-07T05:14:14;2.00;99.90
26803;DHT22;14378;51.796;5.808;2023-12-07T05:16:15;2.00;99.90
26803;DHT22;14378;51.796;5.808;2023-12-07T05:18:16;2.00;99.90
26803;DHT22;14378;51.796;5.808;2023-12-07T05:20:17;2.00;99.90
26803;DHT22;14378;51.796;5.808;2023-12-07T05:22:22;2.00;99.90
26803;DHT22;14378;51.796;5.808;2023-12-07T05:24:23;2.00;99.90
26803;DHT22;14378;51.796;5.808;2023-12-07T05:26:24;2.00;99.90
26803;DHT22;14378;51.796;5.808;2023-12-07T05:28:25;2.00;99.90
26803;DHT22;14378;51.796;5.808;2023-12-07T05:30:26;2.00;99.90
26803;DHT22;14378;51.796;5.808;2023-12-07T05:32:28;2.00;99.90
26803;DHT22;14378;51.796;5.808;2023-12-07T05:34:29;2.00;99.90
26803;DHT22;14378;51.796;5.808;2023-12-07T05:36:30;2.00;99.90
26803;DHT22;14378;51.796;5.808;2023-12-07T05:38:31;2.00;99.90
26803;DHT22;14378;51.796;5.808;2023-12-07T05:40:32;1.90;99.90
26803;DHT22;14378;51.796;5.808;2023-12-07T05:42:34;1.90;99.90
26803;DHT22;14378;51.796;5.808;2023-12-07T05:44:35;1.90;99.90
26803;DHT22;14378;51.796;5.808;2023-12-07T05:46:36;1.90;99.90
26803;DHT22;14378;51.796;5.808;2023-12-07T05:48:37;1.90;99.90
26803;DHT22;14378;51.796;5.808;2023-12-07T05:50:38;1.90;99.90
26803;DHT22;14378;51.796;5.808;2023-12-07T05:52:40;1.90;99.90
26803;DHT22;14378;51.796;5.808;2023-12-07T05:54:40;1.90;99.90
26803;DHT22;14378;51.796;5.808;2023-12-07T05:56:47;1.90;99.90
26803;DHT22;14378;51.796;5.808;2023-12-07T05:58:48;1.90;99.90
26803;DHT22;14378;51.796;5.808;2023-12-07T06:00:49;1.90;99.90
26803;DHT22;14378;51.796;5.808;2023-12-07T06:02:50;1.90;99.90
26803;DHT22;14378;51.796;5.808;2023-12-07T06:04:51;1.90;99.90
26803;DHT22;14378;51.796;5.808;2023-12-07T06:06:52;1.80;99.90
26803;DHT22;14378;51.796;5.808;2023-12-07T06:08:52;1.90;99.90
26803;DHT22;14378;51.796;5.808;2023-12-07T06:10:54;1.80;99.90
26803;DHT22;14378;51.796;5.808;2023-12-07T06:12:55;1.80;99.90
26803;DHT22;14378;51.796;5.808;2023-12-07T06:14:57;1.90;99.90
26803;DHT22;14378;51.796;5.808;2023-12-07T06:16:58;1.80;99.90
26803;DHT22;14378;51.796;5.808;2023-12-07T06:18:59;1.80;99.90
26803;DHT22;14378;51.796;5.808;2023-12-07T06:21:00;1.80;99.90
26803;DHT22;14378;51.796;5.808;2023-12-07T06:23:04;1.80;99.90
26803;DHT22;14378;51.796;5.808;2023-12-07T06:25:05;1.90;99.90
26803;DHT22;14378;51.796;5.808;2023-12-07T06:27:06;1.90;99.90
26803;DHT22;14378;51.796;5.808;2023-12-07T06:29:07;1.90;99.90
26803;DHT22;14378;51.796;5.808;2023-12-07T06:31:08;1.90;99.90
26803;DHT22;14378;51.796;5.808;2023-12-07T06:33:09;1.90;99.90
26803;DHT22;14378;51.796;5.808;2023-12-07T06:35:12;1.90;99.90
26803;DHT22;14378;51.796;5.808;2023-12-07T06:37:13;1.90;99.90
26803;DHT22;14378;51.796;5.808;2023-12-07T06:39:14;1.90;99.90
26803;DHT22;14378;51.796;5.808;2023-12-07T06:41:16;1.90;99.90
26803;DHT22;14378;51.796;5.808;2023-12-07T06:43:17;2.00;99.90
26803;DHT22;14378;51.796;5.808;2023-12-07T06:45:19;1.90;99.90
26803;DHT22;14378;51.796;5.808;2023-12-07T06:47:23;2.00;99.90
26803;DHT22;14378;51.796;5.808;2023-12-07T06:49:24;2.00;99.90
26803;DHT22;14378;51.796;5.808;2023-12-07T06:51:25;2.00;99.90
26803;DHT22;14378;51.796;5.808;2023-12-07T06:53:26;2.00;99.90
26803;DHT22;14378;51.796;5.808;2023-12-07T06:55:32;2.00;99.90
26803;DHT22;14378;51.796;5.808;2023-12-07T06:57:33;2.00;99.90
26803;DHT22;14378;51.796;5.808;2023-12-07T06:59:34;2.10;99.90
26803;DHT22;14378;51.796;5.808;2023-12-07T07:01:35;2.10;99.90
26803;DHT22;14378;51.796;5.808;2023-12-07T07:03:36;2.00;99.90
26803;DHT22;14378;51.796;5.808;2023-12-07T07:05:38;2.00;99.90
26803;DHT22;14378;51.796;5.808;2023-12-07T07:07:39;2.00;99.90
26803;DHT22;14378;51.796;5.808;2023-12-07T07:09:40;1.90;99.90
26803;DHT22;14378;51.796;5.808;2023-12-07T07:11:41;1.90;99.90
26803;DHT22;14378;51.796;5.808;2023-12-07T07:13:42;1.90;99.90
26803;DHT22;14378;51.796;5.808;2023-12-07T07:15:43;1.90;99.90
26803;DHT22;14378;51.796;5.808;2023-12-07T07:17:44;2.00;99.90
26803;DHT22;14378;51.796;5.808;2023-12-07T07:19:45;2.00;99.90
26803;DHT22;14378;51.796;5.808;2023-12-07T07:21:46;2.00;99.90
26803;DHT22;14378;51.796;5.808;2023-12-07T07:23:47;2.00;99.90
26803;DHT22;14378;51.796;5.808;2023-12-07T07:25:47;2.00;99.90
26803;DHT22;14378;51.796;5.808;2023-12-07T07:27:48;2.00;99.90
26803;DHT22;14378;51.796;5.808;2023-12-07T07:29:49;1.90;99.90
26803;DHT22;14378;51.796;5.808;2023-12-07T07:31:50;2.00;99.90
26803;DHT22;14378;51.796;5.808;2023-12-07T07:33:51;2.00;99.90
26803;DHT22;14378;51.796;5.808;2023-12-07T07:35:52;2.00;99.90
26803;DHT22;14378;51.796;5.808;2023-12-07T07:37:53;1.90;99.90
26803;DHT22;14378;51.796;5.808;2023-12-07T07:39:54;1.90;99.90
26803;DHT22;14378;51.796;5.808;2023-12-07T07:41:55;2.00;99.90
26803;DHT22;14378;51.796;5.808;2023-12-07T07:43:56;2.00;99.90
26803;DHT22;14378;51.796;5.808;2023-12-07T07:45:57;2.00;99.90
26803;DHT22;14378;51.796;5.808;2023-12-07T07:47:58;2.00;99.90
26803;DHT22;14378;51.796;5.808;2023-12-07T07:49:59;2.00;99.90
26803;DHT22;14378;51.796;5.808;2023-12-07T07:52:04;2.10;99.90
26803;DHT22;14378;51.796;5.808;2023-12-07T07:54:05;2.10;99.90
26803;DHT22;14378;51.796;5.808;2023-12-07T07:56:06;2.10;99.90
26803;DHT22;14378;51.796;5.808;2023-12-07T07:58:07;2.10;99.90
26803;DHT22;14378;51.796;5.808;2023-12-07T08:00:09;2.10;99.90
26803;DHT22;14378;51.796;5.808;2023-12-07T08:02:10;2.10;99.90
26803;DHT22;14378;51.796;5.808;2023-12-07T08:04:11;2.20;99.90
26803;DHT22;14378;51.796;5.808;2023-12-07T08:06:12;2.20;99.90
26803;DHT22;14378;51.796;5.808;2023-12-07T08:08:13;2.20;99.90
26803;DHT22;14378;51.796;5.808;2023-12-07T08:10:14;2.20;99.90
26803;DHT22;14378;51.796;5.808;2023-12-07T08:12:15;2.20;99.90
26803;DHT22;14378;51.796;5.808;2023-12-07T08:14:16;2.20;99.90
26803;DHT22;14378;51.796;5.808;2023-12-07T08:16:17;2.20;99.90
26803;DHT22;14378;51.796;5.808;2023-12-07T08:18:18;2.20;99.90
26803;DHT22;14378;51.796;5.808;2023-12-07T08:20:18;2.30;99.90
26803;DHT22;14378;51.796;5.808;2023-12-07T08:22:19;2.30;99.90
26803;DHT22;14378;51.796;5.808;2023-12-07T08:24:20;2.30;99.90
26803;DHT22;14378;51.796;5.808;2023-12-07T08:26:21;2.30;99.90
26803;DHT22;14378;51.796;5.808;2023-12-07T08:28:22;2.30;99.90
26803;DHT22;14378;51.796;5.808;2023-12-07T08:30:23;2.30;99.90
26803;DHT22;14378;51.796;5.808;2023-12-07T08:32:24;2.30;99.90
26803;DHT22;14378;51.796;5.808;2023-12-07T08:34:26;2.30;99.90
26803;DHT22;14378;51.796;5.808;2023-12-07T08:36:27;2.30;99.90
26803;DHT22;14378;51.796;5.808;2023-12-07T08:38:28;2.30;99.90
26803;DHT22;14378;51.796;5.808;2023-12-07T08:40:29;2.30;99.90
26803;DHT22;14378;51.796;5.808;2023-12-07T08:42:30;2.30;99.90
26803;DHT22;14378;51.796;5.808;2023-12-07T08:44:32;2.30;99.90
26803;DHT22;14378;51.796;5.808;2023-12-07T08:46:33;2.30;99.90
26803;DHT22;14378;51.796;5.808;2023-12-07T08:48:35;2.30;99.90
26803;DHT22;14378;51.796;5.808;2023-12-07T08:50:36;2.30;99.90
26803;DHT22;14378;51.796;5.808;2023-12-07T08:52:38;2.30;99.90
26803;DHT22;14378;51.796;5.808;2023-12-07T08:54:38;2.20;99.90
26803;DHT22;14378;51.796;5.808;2023-12-07T08:56:40;2.20;99.90
26803;DHT22;14378;51.796;5.808;2023-12-07T08:58:44;2.20;99.90
26803;DHT22;14378;51.796;5.808;2023-12-07T09:00:45;2.20;99.90
26803;DHT22;14378;51.796;5.808;2023-12-07T09:02:45;2.20;99.90
26803;DHT22;14378;51.796;5.808;2023-12-07T09:04:46;2.30;99.90
26803;DHT22;14378;51.796;5.808;2023-12-07T09:06:47;2.30;99.90
26803;DHT22;14378;51.796;5.808;2023-12-07T09:08:48;2.30;99.90
26803;DHT22;14378;51.796;5.808;2023-12-07T09:10:49;2.30;99.90
26803;DHT22;14378;51.796;5.808;2023-12-07T09:12:53;2.30;99.90
26803;DHT22;14378;51.796;5.808;2023-12-07T09:14:57;2.30;99.90
26803;DHT22;14378;51.796;5.808;2023-12-07T09:16:57;2.30;99.90
26803;DHT22;14378;51.796;5.808;2023-12-07T09:18:58;2.30;99.90
26803;DHT22;14378;51.796;5.808;2023-12-07T09:20:59;2.30;99.90
26803;DHT22;14378;51.796;5.808;2023-12-07T09:23:01;2.30;99.90
26803;DHT22;14378;51.796;5.808;2023-12-07T09:25:02;2.30;99.90
26803;DHT22;14378;51.796;5.808;2023-12-07T09:27:03;2.30;99.90
26803;DHT22;14378;51.796;5.808;2023-12-07T09:29:04;2.30;99.90
26803;DHT22;14378;51.796;5.808;2023-12-07T09:31:06;2.30;99.90
26803;DHT22;14378;51.796;5.808;2023-12-07T09:33:07;2.40;99.90
26803;DHT22;14378;51.796;5.808;2023-12-07T09:35:09;2.40;99.90
26803;DHT22;14378;51.796;5.808;2023-12-07T09:37:19;2.40;99.90
26803;DHT22;14378;51.796;5.808;2023-12-07T09:39:20;2.50;99.90
26803;DHT22;14378;51.796;5.808;2023-12-07T09:41:22;2.50;99.90
26803;DHT22;14378;51.796;5.808;2023-12-07T09:43:24;2.60;99.90
26803;DHT22;14378;51.796;5.808;2023-12-07T09:45:26;2.60;99.90
26803;DHT22;14378;51.796;5.808;2023-12-07T09:47:27;2.70;99.90
26803;DHT22;14378;51.796;5.808;2023-12-07T09:49:30;2.70;99.90
26803;DHT22;14378;51.796;5.808;2023-12-07T09:51:31;2.80;99.90
26803;DHT22;14378;51.796;5.808;2023-12-07T09:53:34;2.80;99.90
26803;DHT22;14378;51.796;5.808;2023-12-07T09:55:36;2.80;99.90
26803;DHT22;14378;51.796;5.808;2023-12-07T09:57:37;2.80;99.90
26803;DHT22;14378;51.796;5.808;2023-12-07T09:59:40;2.90;99.90
26803;DHT22;14378;51.796;5.808;2023-12-07T10:01:41;2.90;99.90
26803;DHT22;14378;51.796;5.808;2023-12-07T10:03:42;2.90;99.90
26803;DHT22;14378;51.796;5.808;2023-12-07T10:05:55;3.00;99.90
26803;DHT22;14378;51.796;5.808;2023-12-07T10:08:00;3.00;99.90
26803;DHT22;14378;51.796;5.808;2023-12-07T10:10:01;3.00;99.90
26803;DHT22;14378;51.796;5.808;2023-12-07T10:12:04;3.10;99.90
26803;DHT22;14378;51.796;5.808;2023-12-07T10:14:09;3.10;99.90
26803;DHT22;14378;51.796;5.808;2023-12-07T10:16:13;3.20;99.90
26803;DHT22;14378;51.796;5.808;2023-12-07T10:18:23;3.20;99.90
26803;DHT22;14378;51.796;5.808;2023-12-07T10:20:26;3.20;99.90
26803;DHT22;14378;51.796;5.808;2023-12-07T10:22:28;3.30;99.90
26803;DHT22;14378;51.796;5.808;2023-12-07T10:24:29;3.20;99.90
26803;DHT22;14378;51.796;5.808;2023-12-07T10:26:31;3.30;99.90
26803;DHT22;14378;51.796;5.808;2023-12-07T10:28:37;3.30;99.90
26803;DHT22;14378;51.796;5.808;2023-12-07T10:30:40;3.30;99.90
26803;DHT22;14378;51.796;5.808;2023-12-07T10:32:42;3.30;99.90
26803;DHT22;14378;51.796;5.808;2023-12-07T10:34:43;3.30;99.90
26803;DHT22;14378;51.796;5.808;2023-12-07T10:36:46;3.40;99.90
26803;DHT22;14378;51.796;5.808;2023-12-07T10:38:48;3.40;99.90
26803;DHT22;14378;51.796;5.808;2023-12-07T10:41:03;3.40;99.90
26803;DHT22;14378;51.796;5.808;2023-12-07T10:43:05;3.40;99.90
26803;DHT22;14378;51.796;5.808;2023-12-07T10:45:07;3.40;99.90
26803;DHT22;14378;51.796;5.808;2023-12-07T10:47:10;3.50;99.90
26803;DHT22;14378;51.796;5.808;2023-12-07T10:49:17;3.50;99.90
26803;DHT22;14378;51.796;5.808;2023-12-07T10:51:37;3.50;99.90
26803;DHT22;14378;51.796;5.808;2023-12-07T10:53:41;3.60;99.90
26803;DHT22;14378;51.796;5.808;2023-12-07T10:55:55;3.60;99.90
26803;DHT22;14378;51.796;5.808;2023-12-07T10:57:56;3.70;99.90
26803;DHT22;14378;51.796;5.808;2023-12-07T11:00:01;3.70;99.90
26803;DHT22;14378;51.796;5.808;2023-12-07T11:02:02;3.80;99.90
26803;DHT22;14378;51.796;5.808;2023-12-07T11:04:05;3.80;99.90
26803;DHT22;14378;51.796;5.808;2023-12-07T11:06:07;3.80;99.90
26803;DHT22;14378;51.796;5.808;2023-12-07T11:08:15;3.90;99.90
26803;DHT22;14378;51.796;5.808;2023-12-07T11:10:27;3.90;99.90
26803;DHT22;14378;51.796;5.808;2023-12-07T11:12:37;4.00;99.90
26803;DHT22;14378;51.796;5.808;2023-12-07T11:14:41;4.00;99.90
26803;DHT22;14378;51.796;5.808;2023-12-07T11:16:44;4.10;99.90
26803;DHT22;14378;51.796;5.808;2023-12-07T11:18:46;4.10;99.90
26803;DHT22;14378;51.796;5.808;2023-12-07T11:20:46;4.20;99.90
26803;DHT22;14378;51.796;5.808;2023-12-07T11:22:49;4.20;99.90
26803;DHT22;14378;51.796;5.808;2023-12-07T11:24:57;4.20;99.90
26803;DHT22;14378;51.796;5.808;2023-12-07T11:27:01;4.30;99.90
26803;DHT22;14378;51.796;5.808;2023-12-07T11:29:02;4.40;99.90
26803;DHT22;14378;51.796;5.808;2023-12-07T11:31:03;4.50;99.90
26803;DHT22;14378;51.796;5.808;2023-12-07T11:33:06;4.60;99.90
26803;DHT22;14378;51.796;5.808;2023-12-07T11:35:12;4.70;99.90
26803;DHT22;14378;51.796;5.808;2023-12-07T11:37:15;4.80;99.90
26803;DHT22;14378;51.796;5.808;2023-12-07T11:39:19;4.90;99.90
26803;DHT22;14378;51.796;5.808;2023-12-07T11:41:21;5.00;99.90
26803;DHT22;14378;51.796;5.808;2023-12-07T11:45:40;5.20;99.90
26803;DHT22;14378;51.796;5.808;2023-12-07T11:47:41;5.30;99.90
26803;DHT22;14378;51.796;5.808;2023-12-07T11:49:43;5.40;99.90
26803;DHT22;14378;51.796;5.808;2023-12-07T11:51:44;5.40;99.90
26803;DHT22;14378;51.796;5.808;2023-12-07T11:53:45;5.50;99.90
26803;DHT22;14378;51.796;5.808;2023-12-07T11:55:46;5.50;99.90
26803;DHT22;14378;51.796;5.808;2023-12-07T11:57:47;5.50;99.90
26803;DHT22;14378;51.796;5.808;2023-12-07T11:59:48;5.60;99.90
26803;DHT22;14378;51.796;5.808;2023-12-07T12:01:49;5.60;99.90
26803;DHT22;14378;51.796;5.808;2023-12-07T12:03:50;5.60;99.90
26803;DHT22;14378;51.796;5.808;2023-12-07T12:05:51;5.70;99.90
26803;DHT22;14378;51.796;5.808;2023-12-07T12:07:52;5.70;99.90
26803;DHT22;14378;51.796;5.808;2023-12-07T12:09:52;5.70;99.90
26803;DHT22;14378;51.796;5.808;2023-12-07T12:11:53;5.80;99.90
26803;DHT22;14378;51.796;5.808;2023-12-07T12:13:54;5.80;99.90
26803;DHT22;14378;51.796;5.808;2023-12-07T12:15:59;5.80;99.90
26803;DHT22;14378;51.796;5.808;2023-12-07T12:18:00;5.70;99.90
26803;DHT22;14378;51.796;5.808;2023-12-07T12:20:03;5.70;99.90
26803;DHT22;14378;51.796;5.808;2023-12-07T12:22:04;5.70;99.90
26803;DHT22;14378;51.796;5.808;2023-12-07T12:24:06;5.60;99.90
26803;DHT22;14378;51.796;5.808;2023-12-07T12:26:08;5.60;99.90
26803;DHT22;14378;51.796;5.808;2023-12-07T12:28:11;5.60;99.90
26803;DHT22;14378;51.796;5.808;2023-12-07T12:30:15;5.50;99.90
26803;DHT22;14378;51.796;5.808;2023-12-07T12:32:17;5.50;99.90
26803;DHT22;14378;51.796;5.808;2023-12-07T12:34:20;5.50;99.90
26803;DHT22;14378;51.796;5.808;2023-12-07T12:36:22;5.50;99.90
26803;DHT22;14378;51.796;5.808;2023-12-07T12:38:24;5.50;99.90
26803;DHT22;14378;51.796;5.808;2023-12-07T12:40:28;5.40;99.90
26803;DHT22;14378;51.796;5.808;2023-12-07T12:42:36;5.40;99.90
26803;DHT22;14378;51.796;5.808;2023-12-07T12:44:39;5.30;99.90
26803;DHT22;14378;51.796;5.808;2023-12-07T12:46:40;5.30;99.90
26803;DHT22;14378;51.796;5.808;2023-12-07T12:48:57;5.20;99.90
26803;DHT22;14378;51.796;5.808;2023-12-07T12:51:07;5.20;99.90
26803;DHT22;14378;51.796;5.808;2023-12-07T12:53:10;5.30;99.90
26803;DHT22;14378;51.796;5.808;2023-12-07T12:55:11;5.30;99.90
26803;DHT22;14378;51.796;5.808;2023-12-07T12:57:12;5.30;99.90
26803;DHT22;14378;51.796;5.808;2023-12-07T12:59:14;5.30;99.90
26803;DHT22;14378;51.796;5.808;2023-12-07T13:01:16;5.30;99.90
26803;DHT22;14378;51.796;5.808;2023-12-07T13:03:18;5.30;99.90
26803;DHT22;14378;51.796;5.808;2023-12-07T13:05:19;5.30;99.90
26803;DHT22;14378;51.796;5.808;2023-12-07T13:07:20;5.30;99.90